Weather observations for the past three days for
La Paz International Airport
Metric (Imperial)
Date Time (mst) Wind (kph) Vis. (km) Weather Sky Cond. Temperature (ºC) Relative Humidity Wind Chill (°C) Heat Index (°C) Pressure Precipitation (cm)
Air Dwpt 6 hour altimeter (cm) sea level (mb) 1 hr 3 hr 6 hr
Max. Min.
04 17:42 SW 17 16.09 Mostly Cloudy BKN200 30 12 33% 29 75.97 0.0
04 16:40 N 9 16.09 Mostly Cloudy BKN200 31 15 38% 31 75.97 1012.3
04 15:40 N 15 16.09 Mostly Cloudy BKN200 30 14 38% 29 76 0.0
04 14:40 NW 22 16.09 Mostly Cloudy BKN200 32 16 38% 32 76 0.0
04 13:44 Calm 16.09 Mostly Cloudy BKN200 32 12 29% 31 76.02 1013.2
04 12:40 S 19 16.09 Partly Cloudy SCT200 31 12 31% 30 76.1 0.0
04 11:40 S 26 16.09 Mostly Cloudy BKN200 29 12 35% 28 76.15 0.0
04 10:40 S 24 16.09 Mostly Cloudy BKN200 27 12 39% 27 76.2 1015.4
04 09:40 S 15 16.09 Mostly Cloudy BKN200 24 13 50% 25 76.23 0.0
04 08:44 S 20 16.09 Mostly Cloudy BKN200 20 13 64% 76.25 0.0
04 07:41 S 19 16.09 Mostly Cloudy FEW100 BKN200 18 13 73% 76.23 1015.9
04 06:46 S 17 16.09 Mostly Cloudy FEW100 BKN200 16 13 83% 76.2 0.0
04 05:40 S 17 16.09 Partly Cloudy SCT200 15 13 88% 76.17 0.0
03 22:40 S 15 16.09 Clear SKC 19 14 73% 76.25 1016.1
03 21:40 S 17 16.09 Clear SKC 20 14 69% 76.25 0.0
03 20:40 S 19 16.09 Clear SKC 21 14 64% 76.23 0.0
03 19:40 S 20 16.09 Partly Cloudy SCT200 23 14 57% 76.15 1014.7
03 18:40 SW 19 16.09 Mostly Cloudy BKN200 26 12 42% 26 76.07 0.0
03 17:40 S 13 16.09 Partly Cloudy SCT200 29 11 33% 28 76.02 0.0
03 16:40 SW 13 16.09 Mostly Cloudy BKN200 30 10 29% 29 75.97 1012.5
03 15:41 SW 28 16.09 Mostly Cloudy BKN200 32 11 27% 31 75.97 0.0
03 14:40 SW 24 16.09 Mostly Cloudy BKN200 34 10 23% 32 75.97 0.0
03 13:40 SW 11 16.09 Mostly Cloudy BKN200 33 11 26% 31 75.97 1012.4
03 12:41 S 11 16.09 Mostly Cloudy BKN200 32 11 27% 31 76.02 0.0
03 11:42 W 6 16.09 A Few Clouds FEW200 32 9 24% 30 76.1 0.0
03 10:40 S 6 16.09 Partly Cloudy SCT200 30 8 25% 28 76.12 1014.7
03 09:44 S 13 16.09 Partly Cloudy SCT200 28 7 26% 27 76.15 0.0
03 08:41 SW 15 16.09 A Few Clouds FEW200 24 11 44% 25 76.15 0.0
03 07:40 S 19 16.09 A Few Clouds FEW200 19 14 73% 76.15 1014.5
03 06:48 S 15 16.09 A Few Clouds FEW200 16 13 83% 76.12 0.0
03 05:40 S 17 16.09 A Few Clouds FEW200 15 13 88% 76.05 0.0
02 22:40 SE 13 12.87 A Few Clouds FEW200 21 14 64% 76.1 1014.1
02 21:40 S 17 12.87 Partly Cloudy SCT200 22 15 65% 76.05 0.0
02 20:40 S 20 12.87 A Few Clouds FEW200 23 15 61% 76 0.0
02 19:40 S 20 12.87 Partly Cloudy SCT200 26 14 48% 26 75.9 1011.5
02 18:40 SW 17 16.09 Partly Cloudy SCT200 29 14 40% 29 75.87 0.0
02 17:40 SW 19 16.09 Partly Cloudy SCT200 32 10 26% 30 75.79 0.0
02 16:40 N 11 16.09 A Few Clouds FEW200 33 10 24% 31 75.77 1009.7
02 15:41 W 11 16.09 A Few Clouds FEW200 34 10 23% 32 75.77 0.0
02 14:40 N 15 16.09 Partly Cloudy SCT200 33 10 24% 31 75.79 0.0
02 13:45 N 11 16.09 Clear SKC 34 8 20% 32 75.84 1010.8
02 12:40 W 9 16.09 Clear SKC 34 6 17% 32 75.9 0.0
02 11:40 W 7 16.09 Clear SKC 33 6 18% 31 75.97 0.0
02 10:40 Calm 16.09 Clear SKC 31 4 18% 29 76.02 1013.0
02 09:40 S 17 16.09 Clear SKC 28 9 30% 27 76.05 0.0
02 08:40 S 9 16.09 Clear SKC 25 13 47% 26 76.02 0.0
02 07:51 S 19 16.09 Clear SKC 21 14 64% 76 1012.7
02 06:40 S 19 16.09 A Few Clouds FEW200 16 14 88% 75.97 0.0
02 06:00 S 15 16.09 A Few Clouds FEW200 15 13 88% 75.92 0.0
01 22:41 S 17 12.87 A Few Clouds FEW200 20 14 69% 76 1012.7
01 21:42 S 15 12.87 A Few Clouds FEW200 22 14 61% 75.97 0.0
01 20:40 S 20 12.87 A Few Clouds FEW200 23 13 53% 75.92 0.0
01 19:40 SE 17 16.09 Clear SKC 27 14 45% 27 75.84 1010.7
01 18:40 NW 11 16.09 Clear SKC 28 19 58% 29 75.77 0.0
Date Time (mst) Wind (kph) Vis. (km) Weather Sky Cond. Air Dwpt Max. Min. Relative Humidity Wind Chill (°C) Heat Index (°C) altimeter (cm) sea level (mb) 1 hr 3 hr 6 hr
6 hour
Temperature (ºC) Pressure Precipitation (cm)